Davis Monthan Air Force Base
KDMA : now visible

Airfield :











YOU CAN JOIN US ON...

 
LOGIN :

Register | Disclaimer

   EN    FR    IT 

 









Legend :    VFR   Marginal VFR   IFR   Intensive IFR   Very Intensive IFR
Visi :
Ceiling :
>= 8 km
>= 3000ft
5 to 8 km
1000 to 3000 ft
1500m to 5 km
500 to 1000 ft
800 to 1500m
200 to 500 ft
< 800m
< 200 ft
Symbols :   Thunderstorms  Fog  Heavy snow  Heavy precipitations  Wind > 20 kt






- Airport Elevation : 2704 ft


KDMA - Davis Monthan Air Force Base

CURRENT METAR :
  • 231058Z AUTO 13006KT 10SM CLR 13/01 A2990 RMK AO2 SLP091 T01310014 $

EXPIRED METARs :
  • 230958Z AUTO 12008KT 10SM CLR 13/01 A2991 RMK AO2 SLP095 T01300013 $
  • 230858Z AUTO 19003KT 10SM CLR 13/02 A2992 RMK AO2 SLP098 T01330019 56008 $

TAF TAF KDMA
Valid from the 23 at 06:00 until the 24 at 12:00 UTC


230601Z 2306/2412 11006KT 9999 FEW240 QNH2995INS
BECMG 2318/2319 25010G20KT 9999 SKC QNH2990INS
BECMG 2401/2402 VRB06KT 9999 SCT250 QNH2988INS TX28/2320Z TN12/2313Z
KZAB FIR / North America



MET'MAP, your aeronautical weather chart ! - Copyright ORBIFLY December 2007 - Disclaimer

ORBIFLY MET'MAP TEAM :

Programming & Development : Alexandra Zaïnal
Concept & original design : Baudouin d'Aumeries
Assistance for programming : Marc-Olivier Méhu
Technical & hardware support : Manuel Goepfert

Contact : metmap@orbifly.com




SOURCES & CREDITS :

   NOAA       Earth
Advisory